Latest Coastal Weather Observations for Cooktown

IDQ60701

Issued at 5:02 am EST Saturday 24 June 2017 (issued every 10 minutes, with the page automatically refreshed every 10 minutes)

About coastal observations | Map of coastal stations | Coastal observations for QLD | Marine services | Other Formats
Station Details ID: 031209 Name: COOKTOWN AIRPORT Lat: -15.45 Lon: 145.19 Height: 4.8 m
Data from the previous 72 hours. | See also: Recent months at Cooktown
Date/Time
EST
Temp
°C
Wind Pressure Rain since
9am
mm
Weather Cloud Vis
km
Sea
Height
m
Swell
Dir  Spd
kts
Gust
kts
hPa Trend Height
m
Period
s
Dir
24/05:00am 18.2 SSW 3 5 1013.6 - 0.8 - Partly cloudy 10 - - - -
24/04:30am 20.0 SSE 5 7 1013.6 - 0.8 - - 10 - - - -
24/04:00am 19.9 SSE 4 8 1013.6 - 0.8 - Partly cloudy 10 - - - -
24/03:30am 20.0 SE 6 9 1013.8 - 0.8 - - 10 - - - -
24/03:00am 20.1 SE 6 8 1014.1 - 0.8 - - 10 - - - -
24/02:30am 20.0 SE 5 7 1014.2 - 0.8 - Partly cloudy 10 - - - -
24/02:00am 19.4 CALM 0 0 1014.6 - 0.8 - Cloudy 10 - - - -
24/01:30am 20.0 ESE 4 6 1014.9 - 0.8 - Partly cloudy 10 - - - -
24/01:00am 20.1 SSE 5 8 1015.4 - 0.8 - Partly cloudy 10 - - - -
24/12:30am 20.0 ESE 4 5 1015.6 - 0.8 - Partly cloudy 10 - - - -
24/12:24am 20.1 ESE 4 6 1015.6 - 0.8 - Partly cloudy 10 - - - -
24/12:00am 21.2 SE 8 13 1015.8 - 0.0 - Cloudy 5 - - - -
 
Date/Time
EST
Temp
°C
Wind Pressure Rain since
9am
mm
Weather Cloud Vis
km
Sea
Height
m
Swell
Dir  Spd
kts
Gust
kts
hPa Trend Height
m
Period
s
Dir
23/11:59pm 21.0 SE 9 13 1015.8 - 0.0 - Partly cloudy 5 - - - -
23/11:30pm 21.2 SE 7 10 1015.8 - 0.0 - Partly cloudy 10 - - - -
23/11:00pm 21.3 SSE 7 11 1016.1 - 0.0 - Partly cloudy 10 - - - -
23/10:30pm 20.7 S 4 6 1016.3 - 0.0 - Partly cloudy 10 - - - -
23/10:00pm 21.0 SSE 5 7 1016.5 - 0.0 - - 10 - - - -
23/09:30pm 21.1 SE 5 6 1016.5 - 0.0 - - 10 - - - -
23/09:00pm 21.3 SE 6 9 1016.5 - 0.0 - - 10 - - - -
23/08:30pm 21.7 SSE 8 15 1016.3 - 0.0 - - 10 - - - -
23/08:00pm 21.6 SE 7 13 1016.2 - 0.0 - - 10 - - - -
23/07:30pm 22.1 SE 8 13 1016.0 - 0.0 - Partly cloudy 10 - - - -
23/07:00pm 22.0 SE 8 13 1015.7 - 0.0 - Partly cloudy 10 - - - -
23/06:30pm 22.0 SE 8 13 1015.4 - 0.0 - Partly cloudy 10 - - - -
23/06:00pm 22.5 SE 9 15 1015.0 - 0.0 - - 10 - - - -
23/05:30pm 23.3 SE 8 16 1014.8 - 0.0 - - 10 - - - -
23/05:00pm 24.1 SE 9 16 1014.7 - 0.0 - - 10 - - - -
23/04:30pm 24.7 SE 10 17 1014.4 - 0.0 - - 10 - - - -
23/04:00pm 24.9 SE 11 17 1014.2 - 0.0 - - 10 - - - -
23/03:30pm 25.5 SE 11 17 1014.3 - 0.0 - - 10 - - - -
23/03:00pm 25.7 ESE 12 21 1014.4 - 0.0 - Mostly clear 10 - - - -
23/02:30pm 25.9 SE 14 20 1014.6 - 0.0 - - 10 - - - -
23/02:00pm 26.0 SE 13 19 1014.9 - 0.0 - Partly cloudy 10 - - - -
23/01:30pm 26.2 SE 13 19 1015.3 - 0.0 - Partly cloudy 10 - - - -
23/01:00pm 25.6 SE 13 21 1015.6 - 0.0 - Partly cloudy 10 - - - -
23/12:30pm 27.1 SE 11 16 1015.8 - 0.0 - Partly cloudy 10 - - - -
23/12:00pm 26.1 SE 13 19 1016.3 - 0.0 - Mostly clear 10 - - - -
23/11:30am 25.7 ESE 13 21 1016.6 - 0.0 - - 10 - - - -
23/11:00am 25.7 SE 12 20 1017.0 - 0.0 - - 10 - - - -
23/10:30am 25.5 SE 14 20 1017.2 - 0.0 - - 10 - - - -
23/10:00am 25.2 SE 13 21 1017.4 - 0.0 - - 10 - - - -
23/09:30am 24.6 SE 13 19 1017.5 - 0.0 - - 10 - - - -
23/09:00am 24.3 SE 12 16 1017.4 R 0.4 Fine Mostly clear 25 - - - -
23/08:30am 24.3 ESE 12 16 1017.2 - 0.4 - - 10 - - - -
23/08:00am 23.0 SE 8 14 1016.9 - 0.4 - Partly cloudy 10 - - - -
23/07:30am 22.2 SE 10 16 1016.6 - 0.4 - Partly cloudy 10 - - - -
23/07:00am 21.9 SE 11 16 1016.4 - 0.4 - Partly cloudy 10 - - - -
23/06:30am 22.0 SE 11 19 1016.1 - 0.4 - Partly cloudy 10 - - - -
23/06:00am 22.0 SE 10 16 1015.9 - 0.4 - Partly cloudy 10 - - - -
23/05:30am 21.7 SE 9 13 1015.9 - 0.4 - Partly cloudy 10 - - - -
23/05:00am 22.1 SE 9 15 1015.8 - 0.4 - Partly cloudy 10 - - - -
23/04:30am 22.1 SE 10 14 1015.6 - 0.4 - Partly cloudy 10 - - - -
23/04:00am 23.0 ESE 13 20 1015.5 - 0.4 - Partly cloudy 10 - - - -
23/03:30am 21.7 SE 8 13 1015.6 - 0.4 - Partly cloudy 10 - - - -
23/03:00am 21.7 SE 8 12 1015.8 - 0.4 - - 10 - - - -
23/02:30am 21.5 SE 7 11 1015.9 - 0.4 - Partly cloudy 10 - - - -
23/02:00am 21.7 SE 9 12 1015.9 - 0.4 - - 10 - - - -
23/01:30am 21.8 SE 8 16 1016.3 - 0.4 - - 10 - - - -
23/01:00am 21.5 SE 7 11 1016.5 - 0.4 - - 10 - - - -
23/12:30am 21.6 SE 8 14 1016.7 - 0.4 - - 10 - - - -
23/12:00am 21.7 SE 7 11 1017.1 - 0.4 - Mostly clear 10 - - - -
 
Date/Time
EST
Temp
°C
Wind Pressure Rain since
9am
mm
Weather Cloud Vis
km
Sea
Height
m
Swell
Dir  Spd
kts
Gust
kts
hPa Trend Height
m
Period
s
Dir
22/11:30pm 22.0 SE 9 14 1017.3 - 0.4 - Partly cloudy 10 - - - -
22/11:00pm 22.1 SE 9 14 1017.7 - 0.4 - Partly cloudy 10 - - - -
22/10:30pm 22.1 SE 10 14 1017.8 - 0.4 - Partly cloudy 10 - - - -
22/10:00pm 22.3 SE 10 16 1018.0 - 0.4 - Partly cloudy 10 - - - -
22/09:30pm 22.0 SE 9 16 1018.1 - 0.4 - Partly cloudy 10 - - - -
22/09:00pm 22.4 SE 12 19 1018.0 - 0.4 - Cloudy 10 - - - -
22/08:30pm 22.8 SE 11 18 1017.8 - 0.4 - Partly cloudy 10 - - - -
22/08:00pm 22.4 SE 9 14 1017.6 - 0.4 - Partly cloudy 10 - - - -
22/07:30pm 21.9 ESE 10 16 1017.4 - 0.4 - Partly cloudy 10 - - - -
22/07:00pm 22.6 SE 10 17 1017.1 - 0.2 - Partly cloudy 10 - - - -
22/06:30pm 22.6 SE 11 21 1016.8 - 0.2 - Partly cloudy 10 - - - -
22/06:00pm 23.0 SE 12 18 1016.4 - 0.2 - Mostly cloudy 10 - - - -
22/05:30pm 22.8 SE 9 13 1016.3 - 0.2 - Partly cloudy 10 - - - -
22/05:00pm 23.2 SE 13 20 1016.2 - 0.2 - Partly cloudy 10 - - - -
22/04:30pm 24.2 SE 14 21 1016.0 - 0.2 - Partly cloudy 10 - - - -
22/04:00pm 24.7 ESE 14 23 1015.8 - 0.2 - - 10 - - - -
22/03:30pm 25.0 SE 15 23 1015.9 - 0.2 - - 10 - - - -
22/03:00pm 25.2 SE 15 22 1015.8 - 0.2 - Mostly clear 10 - - - -
22/02:30pm 25.6 SE 15 24 1016.1 - 0.2 - Partly cloudy 10 - - - -
22/02:00pm 25.3 SE 15 26 1016.2 - 0.2 - Partly cloudy 10 - - - -
22/01:30pm 24.9 SE 15 23 1016.4 - 0.2 - Partly cloudy 10 - - - -
22/01:17pm 24.6 SE 15 26 1016.6 - 0.2 - Partly cloudy 10 - - - -
22/01:00pm 25.4 SE 15 23 1016.8 - 0.2 - Partly cloudy 10 - - - -
22/12:30pm 25.1 SE 15 26 1017.2 - 0.2 - Partly cloudy 10 - - - -
22/12:00pm 25.6 SE 15 24 1017.6 - 0.2 - Mostly clear 10 - - - -
22/11:30am 25.9 SE 13 23 1017.7 - 0.2 - Cloudy 10 - - - -
22/11:00am 25.4 SE 16 25 1017.9 - 0.2 - Partly cloudy 10 - - - -
22/10:55am 25.3 SE 15 25 1018.0 - 0.0 - Partly cloudy 10 - - - -
22/10:30am 24.7 SE 13 24 1018.2 - 0.0 - Partly cloudy 10 - - - -
22/10:03am 24.4 SE 15 26 1018.4 - 0.0 - Partly cloudy 10 - - - -
22/10:00am 24.3 SE 14 23 1018.5 - 0.0 - Partly cloudy 10 - - - -
22/09:30am 24.5 SE 15 27 1018.5 - 0.0 - Partly cloudy 10 - - - -
22/09:22am 24.4 SE 16 27 1018.5 - 0.0 - Partly cloudy 10 - - - -
22/09:00am 23.8 SE 12 21 1018.5 R 5.6 Fine Mostly cloudy 25 - - - -
22/08:30am 23.7 SE 11 18 1018.1 - 5.6 - Partly cloudy 10 - - - -
22/08:00am 22.9 SE 12 19 1017.9 - 5.6 - Partly cloudy 10 - - - -
22/07:30am 23.0 SE 10 15 1017.6 - 5.6 - Partly cloudy 10 - - - -
22/07:00am 22.5 SE 9 14 1017.4 - 5.6 - Partly cloudy 10 - - - -
22/06:30am 22.7 SE 10 15 1017.2 - 5.6 - Partly cloudy 10 - - - -
22/06:00am 22.5 ESE 11 16 1016.9 - 5.6 - Cloudy 10 - - - -
22/05:30am 22.0 SE 12 19 1016.7 - 5.6 - Partly cloudy 10 - - - -
22/05:00am 22.4 SE 10 17 1016.6 - 5.6 - Partly cloudy 10 - - - -
22/04:30am 22.2 SE 10 19 1016.6 - 5.6 - Partly cloudy 10 - - - -
22/04:00am 22.2 SE 10 15 1016.5 - 5.6 - Partly cloudy 10 - - - -
22/03:30am 21.6 SE 8 11 1016.5 - 5.6 - Partly cloudy 10 - - - -
22/03:21am 21.3 SE 8 12 1016.6 - 5.6 - Partly cloudy 10 - - - -
22/03:00am 21.2 E 13 24 1017.1 - 5.4 - Cloudy 7 - - - -
22/02:57am 21.0 E 14 24 1017.1 - 5.4 - Partly cloudy 5 - - - -
22/02:30am 21.7 E 16 26 1017.1 - 5.2 - Partly cloudy 10 - - - -
22/02:03am 23.0 SE 15 26 1017.2 - 5.2 - Partly cloudy 10 - - - -
22/02:00am 23.1 SE 14 26 1017.0 - 5.2 - Partly cloudy 10 - - - -
22/01:30am 23.0 ESE 13 19 1017.4 - 5.2 - Partly cloudy 10 - - - -
22/01:00am 22.9 SE 11 23 1017.6 - 5.2 - Partly cloudy 10 - - - -
22/12:30am 22.3 SE 11 18 1017.8 - 5.2 - Partly cloudy 10 - - - -
22/12:00am 21.9 ESE 11 21 1018.0 - 5.2 - Cloudy 10 - - - -
 
Date/Time
EST
Temp
°C
Wind Pressure Rain since
9am
mm
Weather Cloud Vis
km
Sea
Height
m
Swell
Dir  Spd
kts
Gust
kts
hPa Trend Height
m
Period
s
Dir
21/11:46pm 21.6 ESE 9 15 1018.1 - 5.2 - Partly cloudy 10 - - - -
21/11:30pm 21.6 ESE 13 21 1018.2 - 5.2 - Partly cloudy 2 - - - -
21/11:25pm 21.9 SE 11 18 1018.3 - 4.6 - Partly cloudy 4 - - - -
21/11:00pm 21.9 SE 9 15 1018.3 - 3.4 - Partly cloudy 10 - - - -
21/10:30pm 22.4 SE 12 18 1018.5 - 3.4 - Partly cloudy 10 - - - -
21/10:00pm 22.1 SE 12 18 1018.3 - 3.4 - Partly cloudy 10 - - - -
21/09:53pm 22.1 SE 11 17 1018.2 - 3.4 - Partly cloudy 10 - - - -
21/09:48pm 22.0 SE 10 18 1018.3 - 3.4 - Partly cloudy 10 - - - -
21/09:36pm 21.6 SE 9 13 1018.3 - 3.4 - Partly cloudy 4 - - - -
21/09:30pm 21.5 SE 9 15 1018.3 - 3.4 - Partly cloudy 2 - - - -
21/09:00pm 21.4 SE 10 14 1018.3 - 1.4 - Cloudy 5 - - - -
21/08:55pm 21.4 SE 9 16 1018.3 - 1.2 - Partly cloudy 5 - - - -
21/08:45pm 21.4 SE 10 17 1018.2 - 1.2 - Partly cloudy 10 - - - -
21/08:42pm 21.4 SE 10 17 1018.2 - 1.2 - Partly cloudy 10 - - - -
21/08:30pm 21.4 SE 10 15 1018.1 - 1.2 - Partly cloudy 5 - - - -
21/08:29pm 21.4 SE 10 15 1018.1 - 1.2 - Partly cloudy 4 - - - -
21/08:14pm 21.5 SE 10 18 1018.0 - 1.0 - Partly cloudy 5 - - - -
21/08:09pm 21.5 SE 9 14 1017.9 - 0.8 - Partly cloudy 7 - - - -
21/08:08pm 21.5 SE 8 12 1017.8 - 0.8 - Partly cloudy 8 - - - -
21/08:00pm 21.4 SE 10 17 1017.7 - 0.8 - Partly cloudy 6 - - - -
21/07:49pm 21.6 SE 11 16 1017.6 - 0.8 - Partly cloudy 5 - - - -
21/07:33pm 21.5 SE 9 15 1017.5 - 0.8 - Partly cloudy 10 - - - -
21/07:30pm 21.5 SSE 9 15 1017.4 - 0.8 - Partly cloudy 10 - - - -
21/07:26pm 21.5 SE 8 13 1017.4 - 0.8 - Partly cloudy 10 - - - -
21/07:24pm 21.5 SE 8 13 1017.3 - 0.8 - Partly cloudy 10 - - - -
21/07:07pm 21.3 SE 11 17 1017.2 - 0.8 - Partly cloudy 4 - - - -
21/07:00pm 21.5 SE 9 13 1017.2 - 0.6 - Partly cloudy 5 - - - -
21/06:58pm 21.5 SE 8 13 1017.2 - 0.6 - Partly cloudy 5 - - - -
21/06:36pm 21.4 SE 8 12 1016.9 - 0.6 - Partly cloudy 10 - - - -
21/06:30pm 21.4 SE 7 11 1016.9 - 0.6 - Partly cloudy 10 - - - -
21/06:00pm 21.7 SE 11 14 1016.6 - 0.2 - Cloudy 2 - - - -
21/05:57pm 21.7 SE 10 16 1016.6 - 0.2 - Partly cloudy 2 - - - -
21/05:41pm 22.0 SE 11 18 1016.5 - 0.0 - Partly cloudy 5 - - - -
21/05:34pm 22.5 SE 10 18 1016.4 - 0.0 - Partly cloudy 10 - - - -
21/05:30pm 22.8 SE 10 15 1016.3 - 0.0 - Partly cloudy 10 - - - -
21/05:16pm 23.1 SE 10 16 1016.2 - 0.0 - Partly cloudy 10 - - - -
21/05:00pm 23.6 SE 10 14 1015.7 - 0.0 - Partly cloudy 10 - - - -
21/04:30pm 24.0 SE 12 18 1015.4 - 0.0 - Partly cloudy 10 - - - -
21/04:16pm 24.2 SE 14 21 1015.4 - 0.0 - Partly cloudy 10 - - - -
21/04:04pm 23.8 SE 16 26 1015.3 - 0.0 - Partly cloudy 10 - - - -
21/04:03pm 23.8 SE 15 26 1015.3 - 0.0 - Partly cloudy 10 - - - -
21/04:00pm 24.2 SE 14 26 1015.3 - 0.0 - Partly cloudy 10 - - - -
21/03:30pm 25.5 SE 14 23 1015.1 - 0.0 - Partly cloudy 10 - - - -
21/03:13pm 25.3 SE 15 26 1015.0 - 0.0 - Partly cloudy 10 - - - -
21/03:00pm 25.3 SE 13 19 1015.0 - 0.0 - Cloudy 10 - - - -
21/02:30pm 25.0 SE 13 19 1015.1 - 0.0 - Partly cloudy 10 - - - -
21/02:11pm 24.2 SE 12 17 1015.3 - 0.0 - Partly cloudy 10 - - - -
21/02:00pm 24.5 SE 14 26 1015.4 - 0.0 - Partly cloudy 10 - - - -
21/01:52pm 25.3 SE 14 21 1015.4 - 0.0 - Partly cloudy 10 - - - -
21/01:30pm 25.5 ESE 14 21 1015.6 - 0.0 - Partly cloudy 10 - - - -
21/01:00pm 27.0 SE 13 20 1015.8 - 0.0 - Partly cloudy 10 - - - -
21/12:30pm 26.2 ESE 14 22 1016.2 - 0.0 - Partly cloudy 10 - - - -
21/12:07pm 25.9 SE 15 25 1016.5 - 0.0 - Partly cloudy 10 - - - -
21/12:00pm 25.7 ESE 13 19 1016.6 - 0.0 - Mostly cloudy 10 - - - -
21/11:30am 26.0 ESE 14 23 1016.7 - 0.0 - Partly cloudy 10 - - - -
21/11:01am 26.0 ESE 12 19 1016.9 - 0.0 - Partly cloudy 10 - - - -
21/11:00am 25.5 ESE 12 19 1016.9 - 0.0 - Partly cloudy 10 - - - -
21/10:41am 25.0 ESE 14 20 1017.2 - 0.0 - Partly cloudy 10 - - - -
21/10:30am 24.7 SE 12 20 1017.3 - 0.0 - Partly cloudy 10 - - - -
21/10:23am 24.3 SE 13 22 1017.4 - 0.0 - Partly cloudy 10 - - - -
21/10:00am 25.0 SE 13 21 1017.5 - 0.0 - Partly cloudy 10 - - - -
21/09:30am 24.2 SE 13 19 1017.7 - 0.0 - Partly cloudy 10 - - - -
21/09:00am 24.5 SE 12 20 1017.5 - 0.0 - - 10 - - - -
21/08:30am 23.7 ESE 11 17 1017.4 - 0.0 - Partly cloudy 10 - - - -
21/08:00am 22.9 SE 10 16 1017.1 - 0.0 - - 10 - - - -
21/07:30am 22.7 SE 11 15 1016.7 - 0.0 - - 10 - - - -
21/07:00am 22.3 SE 9 14 1016.4 - 0.0 - - 10 - - - -
21/06:30am 21.8 SE 8 12 1016.2 - 0.0 - - 10 - - - -
21/06:00am 21.9 SE 9 13 1015.9 - 0.0 - Partly cloudy 10 - - - -
21/05:30am 22.3 SE 9 14 1015.7 - 0.0 - Cloudy 10 - - - -

Other Formats:

Comma delimited format used in spreadsheet applications
http://www.bom.gov.au/fwo/IDQ60701/IDQ60701.95283.axf

JavaScript Object Notation format (JSON) in row-major order
http://www.bom.gov.au/fwo/IDQ60701/IDQ60701.95283.json